Jack C. Davis Observatory, Carson City, Nevada Weather observations

Data are for observation ending at time listed.
 Day   Time    Ave.   Ave.  Ave.  Vector   Max.   Stn.    Total    Solar   Ave.  
  of    of     Air    Rel.  Wind   Wind    Wind   Baro.  Precip.   Rad.    Soil  
Year   Day     Temp.  Hum.  Speed  Dir.    Gust   Pres.                    Temp. 
2014   (PST)    F      %     mph   deg.    mph     mb.     in.     W/m2     F   
------------------------------------------------------------------------------
 232    2:10   61.6    43    1.2    14      3.0   844.8    0.00       0    999.0
 232    2:20   60.8    46    2.4   294      5.2   845.0    0.00       0    999.0
 232    2:30   60.2    48    4.5   289      6.9   844.9    0.00       0    999.0
 232    2:40   59.2    48    4.9   293      8.2   844.9    0.00       0    999.0
 232    2:50   59.1    47    4.4   284      7.1   844.8    0.00       0    999.0
 232    3:00   59.8    46    1.3   334      3.0   844.8    0.00       0    999.0
 232    3:10   60.0    47    2.7   284      4.1   844.7    0.00       0    999.0
 232    3:20   59.3    48    2.8   319      3.7   844.7    0.00       0    999.0
 232    3:30   60.0    45    3.0   324      5.3   844.7    0.00       0    999.0
 232    3:40   60.5    45    5.6   314      9.2   844.7    0.00       0    999.0
 232    3:50   59.4    48    5.7   317      9.7   844.7    0.00       0    999.0
 232    4:00   59.4    47    4.7   310      6.6   844.6    0.00       0    999.0
 232    4:10   59.5    48    4.4   324      7.3   844.6    0.00       0    999.0
 232    4:20   58.8    49    4.9   325      7.3   844.6    0.00       0    999.0
 232    4:30   60.3    46    4.7   308      7.5   844.6    0.00       0    999.0
 232    4:40   59.3    48    3.6   291      4.9   844.7    0.00       0    999.0
 232    4:50   58.5    49    3.6   267      5.7   844.7    0.00       0    999.0
 232    5:00   57.4    51    4.5   258      5.4   844.7    0.00       0    999.0
 232    5:10   56.9    52    3.8   266      5.2   844.8    0.00       0    999.0
 232    5:20   57.4    51    3.1   308      4.1   844.9    0.00       3    999.0
 232    5:30   56.9    52    2.9   293      4.3   844.9    0.00       9    999.0
 232    5:40   57.7    51    0.7   277      3.9   845.0    0.00      24    999.0
 232    5:50   59.0    50    0.5   326      2.2   845.0    0.00      47    999.0
 232    6:00   59.2    50    2.8   306      3.9   845.1    0.00      75    999.0
 232    6:10   60.3    50    1.6   268      3.6   845.1    0.00     104    999.0
 232    6:20   62.3    46    1.4   128      3.5   845.1    0.00     133    999.0
 232    6:30   63.5    44    1.2   201      2.5   845.2    0.00     164    999.0
 232    6:40   64.9    41    1.2   116      2.6   845.3    0.00     194    999.0
 232    6:50   66.5    38    1.0    74      2.0   845.3    0.00     228    999.0
 232    7:00   66.8    38    1.8    57      3.3   845.4    0.00     260    999.0
 232    7:10   65.7    40    3.1    78      4.4   845.5    0.00     293    999.0
 232    7:20   64.8    42    3.7    74      5.6   845.5    0.00     325    999.0
 232    7:30   65.1    42    3.0    58      4.3   845.5    0.00     358    999.0
 232    7:40   66.4    39    3.1    69      5.3   845.5    0.00     391    999.0
 232    7:50   67.1    39    3.0    85      4.9   845.5    0.00     423    999.0
 232    8:00   68.2    36    2.8    94      4.8   845.5    0.00     455    999.0
 232    8:10   69.2    35    2.6    77      4.7   845.5    0.00     487    999.0
 232    8:20   70.8    33    2.2    79      4.4   845.4    0.00     518    999.0
 232    8:30   71.6    32    3.0    91      5.3   845.4    0.00     547    999.0
 232    8:40   71.9    32    2.9   101      6.3   845.5    0.00     575    999.0
 232    8:50   72.8    32    3.1    79      5.8   845.5    0.00     604    999.0
 232    9:00   73.3    31    3.1    73      5.4   845.5    0.00     632    999.0
 232    9:10   74.6    29    2.5   112      4.3   845.5    0.00     658    999.0
 232    9:20   76.2    27    3.3   108      6.6   845.4    0.00     682    999.0
 232    9:30   75.8    27    3.7   112      7.8   845.4    0.00     705    999.0
 232    9:40   77.3    25    3.9   120      8.0   845.4    0.00     728    999.0
 232    9:50   77.1    26    4.2   110      7.3   845.3    0.00     750    999.0
 232   10:00   78.3    25    2.5    72      6.5   845.2    0.00     772    999.0
 232   10:10   78.4    25    4.2    87      7.4   845.1    0.00     790    999.0
 232   10:20   77.7    25    4.1    67      8.1   845.1    0.00     807    999.0
 232   10:30   79.8    24    1.9    95      4.4   845.0    0.00     820    999.0
 232   10:40   81.5    22    5.2   118      8.3   844.9    0.00     835    999.0
 232   10:50   80.3    23    3.8   103      7.3   844.8    0.00     850    999.0
 232   11:00   81.9    22    4.0   146      7.8   844.8    0.00     863    999.0
 232   11:10   82.7    22    4.0   106      7.9   844.7    0.00     873    999.0
 232   11:20   83.2    21    4.8   133      8.7   844.5    0.00     877    999.0
 232   11:30   82.9    20    4.5    64     10.3   844.4    0.00     883    999.0
 232   11:40   83.9    18    4.7   200     16.3   844.4    0.00     885    999.0
 232   11:50   84.4    14   11.9   254     19.3   844.2    0.00     899    999.0
 232   12:00   85.0    14   11.0   266     18.5   844.2    0.00     904    999.0
 232   12:10   84.9    14   11.7   254     18.5   844.1    0.00     902    999.0
 232   12:20   84.6    14   12.3   264     20.0   844.1    0.00     900    999.0
 232   12:30   84.5    14   12.2   284     18.2   844.0    0.00     896    999.0
 232   12:40   85.2    14   11.7   290     19.3   843.9    0.00     891    999.0
 232   12:50   85.2    14   11.4   282     20.1   843.9    0.00     887    999.0
 232   13:00   84.9    14   10.8   286     18.0   843.9    0.00     881    999.0
 232   13:10   84.7    15   11.1   282     18.5   844.0    0.00     870    999.0
 232   13:20   84.6    15   11.2   276     17.5   844.0    0.00     857    999.0
 232   13:30   84.3    16   12.1   269     18.0   843.9    0.00     845    999.0
 232   13:40   84.0    16   12.6   265     19.5   843.8    0.00     829    999.0
 232   13:50   83.9    16   10.8   257     22.0   843.7    0.00     817    999.0
 232   14:00   85.0    16    9.2   263     16.8   843.5    0.00     801    999.0
 232   14:10   84.2    17   14.3   262     23.7   843.3    0.00     788    999.0
 232   14:20   83.3    17   16.8   266     26.4   843.1    0.00     767    999.0
 232   14:30   83.3    17   18.2   260     27.9   843.0    0.00     745    999.0
 232   14:40   82.9    18   17.0   262     28.0   843.1    0.00     721    999.0
 232   14:50   82.5    18   19.3   256     29.6   843.1    0.00     697    999.0
 232   15:00   82.1    19   18.3   257     25.7   843.0    0.00     671    999.0
 232   15:10   82.1    18   18.6   261     28.1   843.0    0.00     644    999.0
 232   15:20   81.8    19   18.0   264     27.0   843.0    0.00     616    999.0
 232   15:30   81.8    18   18.9   256     29.4   843.0    0.00     588    999.0
 232   15:40   81.2    18   19.1   265     28.1   843.0    0.00     554    999.0
 232   15:50   81.0    19   18.7   264     26.5   843.0    0.00     521    999.0
 232   16:00   80.5    20   19.0   264     26.1   843.1    0.00     491    999.0
 232   16:10   80.6    20   17.6   263     27.0   843.0    0.00     460    999.0
 232   16:20   80.6    20   16.8   263     28.5   843.0    0.00     428    999.0
 232   16:30   79.8    21   17.2   259     26.1   843.0    0.00     399    999.0
 232   16:40   79.7    21   17.3   257     25.9   843.0    0.00     369    999.0
 232   16:50   79.0    22   19.0   262     28.3   843.1    0.00     339    999.0
 232   17:00   78.7    22   18.1   264     29.1   843.1    0.00     308    999.0
 232   17:10   78.2    22   17.5   261     24.6   843.2    0.00     273    999.0
 232   17:20   77.6    23   19.0   265     29.2   843.1    0.00     237    999.0
 232   17:30   76.9    24   19.0   257     29.4   843.1    0.00     202    999.0
 232   17:40   76.4    24   18.3   263     28.0   843.1    0.00     164    999.0
 232   17:50   75.5    26   19.4   260     28.3   843.2    0.00      70    999.0
 232   18:00   74.7    26   19.2   258     28.5   843.2    0.00      23    999.0
 232   18:10   74.3    27   19.0   261     27.2   843.2    0.00      19    999.0
 232   18:20   73.9    28   19.2   256     31.0   843.2    0.00      15    999.0
 232   18:30   73.4    29   17.6   253     26.2   843.2    0.00      11    999.0
 232   18:40   73.0    30   18.3   256     28.1   843.3    0.00       8    999.0
 232   18:50   72.6    30   17.9   262     27.2   843.3    0.00       5    999.0
 232   19:00   72.5    29   17.3   256     27.8   843.4    0.00       2    999.0
 232   19:10   72.3    28   17.4   253     26.2   843.5    0.00       0    999.0
 232   19:20   72.4    27   17.2   259     25.4   843.6    0.00       0    999.0
 232   19:30   71.9    29   17.5   252     26.8   843.7    0.00       0    999.0
 232   19:40   71.7    29   17.7   257     26.2   843.7    0.00       0    999.0
 232   19:50   72.2    27   16.8   255     30.0   843.9    0.00       0    999.0
 232   20:00   72.0    27   17.5   257     25.6   844.0    0.00       0    999.0
 232   20:10   71.8    26   16.0   251     25.7   844.1    0.00       0    999.0
 232   20:20   72.1    24   16.2   256     23.1   844.3    0.00       0    999.0
 232   20:30   71.9    24    9.4   271     19.4   844.6    0.00       0    999.0
 232   20:40   71.3    25    9.8   262     19.8   844.7    0.00       0    999.0
 232   20:50   70.7    27    8.1   261     18.5   844.8    0.00       0    999.0
 232   21:00   70.9    26    4.5    11     15.0   845.1    0.00       0    999.0
 232   21:10   70.9    26    3.1   277     10.0   845.2    0.00       0    999.0
 232   21:20   70.3    27    3.7    42      8.1   845.3    0.00       0    999.0
 232   21:30   69.7    28    5.9   113     12.0   845.3    0.00       0    999.0
 232   21:40   69.2    28    4.7   100      7.9   845.5    0.00       0    999.0
 232   21:50   69.9    28    6.8   155     14.6   845.7    0.00       0    999.0
 232   22:00   69.4    30    7.3   239     15.5   845.6    0.00       0    999.0
 232   22:10   69.7    28    7.8   283     13.3   845.6    0.00       0    999.0
 232   22:20   69.9    28    7.2   265     12.5   845.7    0.00       0    999.0
 232   22:30   70.2    28    7.6   249     11.4   845.8    0.00       0    999.0
 232   22:40   69.1    30    6.5   266     12.5   845.9    0.00       0    999.0
 232   22:50   67.7    32    5.6   242      9.3   846.0    0.00       0    999.0
 232   23:00   66.1    32    4.0   290      7.4   846.0    0.00       0    999.0
 232   23:10   67.1    31    4.0   211      7.8   846.1    0.00       0    999.0
 232   23:20   65.9    33    1.6   280      4.8   846.2    0.00       0    999.0
 232   23:30   64.9    35    2.2   334      4.2   846.2    0.00       0    999.0
 232   23:40   64.6    37    2.6   262      6.1   846.2    0.00       0    999.0
 232   23:50   64.7    38    2.5   288      5.6   846.3    0.00       0    999.0
 233    0:00   63.3    40    3.1   302      5.3   846.4    0.00       0    999.0
 233    0:10   63.3    40    4.4   271      6.8   846.3    0.00       0    999.0
 233    0:20   63.7    40    2.9   300      5.2   846.4    0.00       0    999.0
 233    0:30   62.8    41    2.5   331      5.2   846.4    0.00       0    999.0
 233    0:40   63.8    39    3.2   279      5.4   846.4    0.00       0    999.0
 233    0:50   63.2    39    3.5   251      6.1   846.4    0.00       0    999.0
 233    1:00   62.4    40    2.8   274      5.0   846.6    0.00       0    999.0
 233    1:10   62.7    40    1.2   344      3.9   846.6    0.00       0    999.0
 233    1:20   62.2    41    1.8   287      3.5   846.7    0.00       0    999.0
 233    1:30   61.8    42    5.0   240      7.3   846.8    0.00       0    999.0
 233    1:40   61.7    42    4.7   235      5.8   846.8    0.00       0    999.0
 233    1:50   62.1    43    4.1   214      5.4   846.8    0.00       0    999.0
 233    2:00   61.6    43    2.2   284      3.8   846.9    0.00       0    999.0

Return to Yerington, Nevada graphs page.


Western Regional Climate Center,wrcc@dri.edu